createdAt,value
2022-09-23T00:01:03.409Z,16.50
2022-09-23T00:04:46.780Z,16.50
2022-09-23T00:08:29.652Z,16.50
2022-09-23T00:12:11.381Z,16.60
2022-09-23T00:15:53.176Z,16.50
2022-09-23T00:19:35.231Z,16.50
2022-09-23T00:23:16.962Z,16.50
2022-09-23T00:27:00.068Z,16.50
2022-09-23T00:30:42.069Z,16.50
2022-09-23T00:34:23.862Z,16.50
2022-09-23T00:38:05.586Z,16.50
2022-09-23T00:41:47.379Z,16.50
2022-09-23T00:45:29.915Z,16.50
2022-09-23T00:49:20.518Z,16.50
2022-09-23T00:53:07.651Z,16.40
2022-09-23T00:56:49.542Z,16.40
2022-09-23T01:00:31.483Z,16.40
2022-09-23T01:04:14.739Z,16.40
2022-09-23T01:07:58.884Z,16.40
2022-09-23T01:11:45.424Z,16.40
2022-09-23T01:15:53.288Z,16.40
2022-09-23T01:20:13.834Z,16.40
2022-09-23T01:24:16.662Z,16.40
2022-09-23T01:28:08.367Z,16.40
2022-09-23T01:32:03.400Z,16.40
2022-09-23T01:36:08.639Z,16.40
2022-09-23T01:40:14.235Z,16.30
2022-09-23T01:44:14.508Z,16.30
2022-09-23T01:48:21.071Z,16.30
2022-09-23T01:52:19.467Z,16.30
2022-09-23T01:56:06.998Z,16.30
2022-09-23T01:59:55.800Z,16.20
2022-09-23T02:03:52.754Z,16.20
2022-09-23T02:07:46.157Z,16.30
2022-09-23T02:11:29.022Z,16.30
2022-09-23T02:15:15.637Z,16.30
2022-09-23T02:19:05.485Z,16.30
2022-09-23T02:23:06.168Z,16.30
2022-09-23T02:26:58.634Z,16.30
2022-09-23T02:30:49.738Z,16.30
2022-09-23T02:34:44.638Z,16.30
2022-09-23T02:38:33.693Z,16.30
2022-09-23T02:42:22.271Z,16.20
2022-09-23T02:46:04.942Z,16.20
2022-09-23T02:49:47.032Z,16.10
2022-09-23T02:53:33.415Z,16.20
2022-09-23T02:57:15.218Z,16.20
2022-09-23T03:01:19.030Z,16.20
2022-09-23T03:05:03.888Z,16.20
2022-09-23T03:08:57.602Z,16.20
2022-09-23T03:12:58.014Z,16.20
2022-09-23T03:17:09.573Z,16.30
2022-09-23T03:21:03.207Z,16.30
2022-09-23T03:24:49.664Z,16.30
2022-09-23T03:28:37.301Z,16.30
2022-09-23T03:32:23.054Z,16.30
2022-09-23T03:36:27.565Z,16.30
2022-09-23T03:40:21.105Z,16.30
2022-09-23T03:44:03.730Z,16.30
2022-09-23T03:47:46.305Z,16.30
2022-09-23T03:51:28.036Z,16.30
2022-09-23T03:55:11.038Z,16.30
2022-09-23T03:58:52.908Z,16.30
2022-09-23T04:02:34.795Z,16.30
2022-09-23T04:06:16.900Z,16.30
2022-09-23T04:09:58.981Z,16.30
2022-09-23T04:13:40.821Z,16.30
2022-09-23T04:17:22.659Z,16.30
2022-09-23T04:21:04.492Z,16.30
2022-09-23T04:24:46.241Z,16.30
2022-09-23T04:28:27.955Z,16.30
2022-09-23T04:32:10.191Z,16.30
2022-09-23T04:35:52.301Z,16.30
2022-09-23T04:39:33.985Z,16.40
2022-09-23T04:43:16.482Z,16.40
2022-09-23T04:46:58.509Z,16.40
2022-09-23T04:50:40.633Z,16.40
2022-09-23T04:54:22.324Z,16.40
2022-09-23T04:58:04.024Z,16.40
2022-09-23T05:01:45.853Z,16.40
2022-09-23T05:05:28.270Z,16.40
2022-09-23T05:09:15.452Z,16.40
2022-09-23T05:12:58.962Z,16.30
2022-09-23T05:16:40.909Z,16.30
2022-09-23T05:20:22.632Z,16.30
2022-09-23T05:24:04.838Z,16.30
2022-09-23T05:27:46.579Z,16.30
2022-09-23T05:31:30.210Z,16.20
2022-09-23T05:35:12.110Z,16.20
2022-09-23T05:38:56.517Z,16.20
2022-09-23T05:42:38.264Z,16.20
2022-09-23T05:46:25.529Z,16.20
2022-09-23T05:50:08.115Z,16.20
2022-09-23T05:53:52.565Z,16.20
2022-09-23T05:57:34.298Z,16.20
2022-09-23T06:01:18.402Z,16.20
2022-09-23T06:05:00.277Z,16.20
2022-09-23T06:08:42.637Z,16.10
2022-09-23T06:12:25.114Z,16.10
2022-09-23T06:16:09.053Z,16.00
2022-09-23T06:19:50.814Z,16.00
2022-09-23T06:23:33.476Z,16.00
2022-09-23T06:27:15.435Z,15.90
2022-09-23T06:30:58.454Z,16.00
2022-09-23T06:34:51.228Z,16.00
2022-09-23T06:38:34.264Z,16.00
2022-09-23T06:42:16.625Z,16.00
2022-09-23T06:46:01.169Z,15.90
2022-09-23T06:49:43.123Z,15.90
2022-09-23T06:53:25.564Z,15.90
2022-09-23T06:57:07.308Z,15.90
2022-09-23T07:00:49.118Z,16.00
2022-09-23T07:04:30.850Z,15.90
2022-09-23T07:08:12.518Z,15.90
2022-09-23T07:11:54.525Z,15.90
2022-09-23T07:15:36.473Z,15.90
2022-09-23T07:19:18.216Z,15.90
2022-09-23T07:22:59.980Z,16.00
2022-09-23T07:26:45.595Z,16.00
2022-09-23T07:30:27.566Z,16.00
2022-09-23T07:34:11.601Z,16.10
2022-09-23T07:37:53.669Z,16.10
2022-09-23T07:41:35.799Z,16.10
2022-09-23T07:45:18.226Z,16.10
2022-09-23T07:49:00.448Z,16.20
2022-09-23T07:52:42.842Z,16.20
2022-09-23T07:56:27.504Z,16.20
2022-09-23T08:00:10.129Z,16.30
2022-09-23T08:03:51.874Z,16.30
2022-09-23T08:07:36.666Z,16.30
2022-09-23T08:11:18.992Z,16.30
2022-09-23T08:15:00.856Z,16.30
2022-09-23T08:18:46.104Z,16.30
2022-09-23T08:22:27.833Z,16.30
2022-09-23T08:26:17.830Z,16.30
2022-09-23T08:30:01.357Z,16.40
2022-09-23T08:33:43.153Z,16.40
2022-09-23T08:37:24.884Z,16.40
2022-09-23T08:41:33.146Z,16.40
2022-09-23T08:45:25.616Z,16.50
2022-09-23T08:49:12.413Z,16.60
2022-09-23T08:53:01.815Z,16.70
2022-09-23T08:56:48.545Z,16.70
2022-09-23T09:01:03.356Z,16.70
2022-09-23T09:04:56.525Z,16.80
2022-09-23T09:08:39.490Z,16.80
2022-09-23T09:12:28.721Z,16.90
2022-09-23T09:16:13.443Z,16.90
2022-09-23T09:20:05.297Z,17.00
2022-09-23T09:23:58.461Z,17.10
2022-09-23T09:27:41.223Z,17.20
2022-09-23T09:31:44.523Z,17.20
2022-09-23T09:35:35.081Z,17.40
2022-09-23T09:39:17.255Z,17.40
2022-09-23T09:42:58.980Z,17.50
2022-09-23T09:46:52.570Z,17.50
2022-09-23T09:51:25.284Z,17.40
2022-09-23T09:55:12.802Z,17.60
2022-09-23T09:59:35.150Z,17.70
2022-09-23T10:03:48.911Z,17.80
2022-09-23T10:07:32.601Z,17.80
2022-09-23T10:11:17.106Z,17.90
2022-09-23T10:14:59.042Z,18.00
2022-09-23T10:18:46.569Z,18.20
2022-09-23T10:22:33.657Z,18.30
2022-09-23T10:26:18.513Z,18.40
2022-09-23T10:30:03.590Z,18.30
2022-09-23T10:33:50.759Z,18.40
2022-09-23T10:37:32.555Z,18.40
2022-09-23T10:42:00.707Z,18.30
2022-09-23T10:46:07.564Z,18.30
2022-09-23T10:50:01.286Z,18.30
2022-09-23T10:54:12.133Z,18.70
2022-09-23T10:58:31.257Z,19.10
2022-09-23T11:02:31.570Z,19.40
2022-09-23T11:06:50.209Z,19.40
2022-09-23T11:10:59.161Z,19.30
2022-09-23T11:15:00.113Z,19.40
2022-09-23T11:18:49.701Z,19.60
2022-09-23T11:22:53.139Z,19.90
2022-09-23T11:27:16.833Z,20.10
2022-09-23T11:31:22.340Z,20.30
2022-09-23T11:35:29.436Z,20.30
2022-09-23T11:39:28.990Z,20.10
2022-09-23T11:43:24.942Z,19.90
2022-09-23T11:47:13.976Z,20.30
2022-09-23T11:51:00.963Z,20.80
2022-09-23T11:55:04.892Z,21.10
2022-09-23T11:59:29.565Z,21.40
2022-09-23T12:03:18.491Z,21.70
2022-09-23T12:07:14.679Z,22.00
2022-09-23T12:11:24.042Z,22.30
2022-09-23T12:15:25.766Z,22.10
2022-09-23T12:19:28.534Z,22.00
2022-09-23T12:23:41.041Z,22.20
2022-09-23T12:27:45.993Z,22.30
2022-09-23T12:31:33.921Z,22.60
2022-09-23T12:35:35.707Z,22.90
2022-09-23T12:39:26.681Z,22.60
2022-09-23T12:43:30.207Z,22.20
2022-09-23T12:47:15.013Z,21.90
2022-09-23T12:51:07.471Z,22.20
2022-09-23T12:54:51.159Z,22.90
2022-09-23T12:58:58.127Z,23.50
2022-09-23T13:03:11.549Z,23.60
2022-09-23T13:07:07.578Z,23.10
2022-09-23T13:10:52.339Z,22.60
2022-09-23T13:14:36.080Z,22.40
2022-09-23T13:18:20.627Z,22.40
2022-09-23T13:22:09.089Z,22.20
2022-09-23T13:26:02.835Z,22.00
2022-09-23T13:29:50.089Z,21.90
2022-09-23T13:33:47.291Z,21.70
2022-09-23T13:37:48.263Z,21.70
2022-09-23T13:41:30.026Z,21.80
2022-09-23T13:45:18.165Z,21.70
2022-09-23T13:48:59.935Z,21.50
2022-09-23T13:52:41.716Z,21.40
2022-09-23T13:56:25.261Z,21.30
2022-09-23T14:00:25.324Z,21.30
2022-09-23T14:04:24.387Z,21.30
2022-09-23T14:08:08.239Z,21.40
2022-09-23T14:11:51.655Z,21.60
2022-09-23T14:15:37.272Z,22.40
2022-09-23T14:19:22.108Z,23.40
2022-09-23T14:23:10.851Z,24.00
2022-09-23T14:26:56.564Z,24.10
2022-09-23T14:30:38.638Z,24.30
2022-09-23T14:34:45.016Z,24.40
2022-09-23T14:38:47.296Z,24.20
2022-09-23T14:42:38.360Z,24.10
2022-09-23T14:46:21.701Z,24.40
2022-09-23T14:50:22.253Z,24.60
2022-09-23T14:54:26.597Z,24.30
2022-09-23T14:58:16.578Z,23.70
2022-09-23T15:01:58.587Z,23.50
2022-09-23T15:05:44.328Z,23.50
2022-09-23T15:09:28.809Z,23.90
2022-09-23T15:13:21.231Z,24.90
2022-09-23T15:17:06.745Z,25.90
2022-09-23T15:20:54.155Z,26.60
2022-09-23T15:24:47.478Z,27.30
2022-09-23T15:28:29.195Z,27.80
2022-09-23T15:32:10.943Z,28.10
2022-09-23T15:35:52.680Z,27.80
2022-09-23T15:39:36.375Z,27.80
2022-09-23T15:43:24.127Z,28.20
2022-09-23T15:47:05.961Z,28.50
2022-09-23T15:50:48.251Z,28.70
2022-09-23T15:54:30.362Z,28.70
2022-09-23T15:58:12.166Z,28.60
2022-09-23T16:01:55.810Z,28.70
2022-09-23T16:05:39.416Z,28.60
2022-09-23T16:09:21.123Z,28.30
2022-09-23T16:13:06.254Z,27.70
2022-09-23T16:16:48.155Z,27.40
2022-09-23T16:20:30.572Z,27.50
2022-09-23T16:24:17.839Z,27.60
2022-09-23T16:27:59.468Z,27.90
2022-09-23T16:31:41.451Z,28.10
2022-09-23T16:35:25.598Z,28.00
2022-09-23T16:39:11.037Z,27.90
2022-09-23T16:42:54.917Z,27.90
2022-09-23T16:46:36.852Z,27.90
2022-09-23T16:50:22.714Z,28.00
2022-09-23T16:54:10.275Z,27.60
2022-09-23T16:57:52.722Z,26.60
2022-09-23T17:01:53.362Z,25.70
2022-09-23T17:05:35.396Z,24.80
2022-09-23T17:09:26.225Z,24.00
2022-09-23T17:13:08.452Z,23.50
2022-09-23T17:16:50.416Z,23.00
2022-09-23T17:20:32.388Z,22.70
2022-09-23T17:24:14.119Z,22.40
2022-09-23T17:27:55.857Z,22.10
2022-09-23T17:31:39.126Z,21.90
2022-09-23T17:35:20.870Z,21.50
2022-09-23T17:39:02.798Z,21.40
2022-09-23T17:42:44.634Z,21.20
2022-09-23T17:46:28.856Z,21.00
2022-09-23T17:50:10.573Z,20.90
2022-09-23T17:53:52.287Z,20.60
2022-09-23T17:57:34.000Z,20.50
2022-09-23T18:01:22.372Z,20.40
2022-09-23T18:05:04.410Z,20.20
2022-09-23T18:08:48.357Z,20.10
2022-09-23T18:12:30.089Z,19.90
2022-09-23T18:16:11.905Z,19.90
2022-09-23T18:19:53.717Z,19.70
2022-09-23T18:23:37.262Z,19.50
2022-09-23T18:27:18.943Z,19.40
2022-09-23T18:31:00.702Z,19.30
2022-09-23T18:34:42.423Z,19.20
2022-09-23T18:38:24.154Z,19.10
2022-09-23T18:42:06.254Z,19.00
2022-09-23T18:46:00.835Z,18.90
2022-09-23T18:50:01.108Z,18.80
2022-09-23T18:53:43.891Z,18.80
2022-09-23T18:57:25.691Z,18.70
2022-09-23T19:01:09.779Z,18.60
2022-09-23T19:04:52.707Z,18.40
2022-09-23T19:08:35.183Z,18.40
2022-09-23T19:12:17.059Z,18.20
2022-09-23T19:16:10.945Z,18.10
2022-09-23T19:19:53.038Z,18.00
2022-09-23T19:23:35.109Z,17.90
2022-09-23T19:27:16.839Z,17.90
2022-09-23T19:31:08.261Z,17.80
2022-09-23T19:34:50.034Z,17.80
2022-09-23T19:38:32.590Z,17.70
2022-09-23T19:42:14.367Z,17.60
2022-09-23T19:45:56.306Z,17.50
2022-09-23T19:49:38.261Z,17.40
2022-09-23T19:53:20.162Z,17.40
2022-09-23T19:57:01.943Z,17.40
2022-09-23T20:00:43.706Z,17.30
2022-09-23T20:04:26.166Z,17.30
2022-09-23T20:08:07.899Z,17.20
2022-09-23T20:11:49.692Z,17.20
2022-09-23T20:15:31.378Z,17.10
2022-09-23T20:19:14.018Z,17.00
2022-09-23T20:22:55.826Z,17.00
2022-09-23T20:26:56.459Z,17.00
2022-09-23T20:30:39.065Z,17.00
2022-09-23T20:34:21.580Z,17.00
2022-09-23T20:38:07.849Z,17.00
2022-09-23T20:41:51.178Z,16.90
2022-09-23T20:45:32.991Z,16.90
2022-09-23T20:49:15.233Z,16.90
2022-09-23T20:52:57.597Z,16.80
2022-09-23T20:56:39.472Z,16.70
2022-09-23T21:00:21.328Z,16.60
2022-09-23T21:04:05.937Z,16.60
2022-09-23T21:07:47.845Z,16.50
2022-09-23T21:11:29.935Z,16.40
2022-09-23T21:15:11.932Z,16.40
2022-09-23T21:18:53.750Z,16.30
2022-09-23T21:22:36.089Z,16.40
2022-09-23T21:26:25.227Z,16.40
2022-09-23T21:30:07.526Z,16.40
2022-09-23T21:33:55.771Z,16.40
2022-09-23T21:37:37.575Z,16.40
2022-09-23T21:41:19.996Z,16.40
2022-09-23T21:45:03.441Z,16.50
2022-09-23T21:48:46.763Z,16.50
2022-09-23T21:52:28.455Z,16.50
2022-09-23T21:56:15.788Z,16.60
2022-09-23T22:00:01.812Z,16.60
2022-09-23T22:03:48.517Z,16.60
2022-09-23T22:07:30.256Z,16.50
2022-09-23T22:11:32.909Z,16.50
2022-09-23T22:15:14.751Z,16.50
2022-09-23T22:18:58.350Z,16.50
2022-09-23T22:22:40.066Z,16.40
2022-09-23T22:26:21.752Z,16.40
2022-09-23T22:30:21.974Z,16.40
2022-09-23T22:34:03.762Z,16.40
2022-09-23T22:37:45.914Z,16.30
2022-09-23T22:41:27.607Z,16.30
2022-09-23T22:45:10.799Z,16.10
2022-09-23T22:48:53.405Z,16.10
2022-09-23T22:52:35.762Z,16.00
2022-09-23T22:56:17.899Z,16.00
2022-09-23T22:59:59.648Z,15.90
2022-09-23T23:03:41.727Z,15.80
2022-09-23T23:07:24.676Z,15.60
2022-09-23T23:11:11.442Z,15.40
2022-09-23T23:14:53.204Z,15.30
2022-09-23T23:18:38.942Z,15.20
2022-09-23T23:22:20.655Z,15.00
2022-09-23T23:26:11.901Z,15.00
2022-09-23T23:29:54.082Z,14.90
2022-09-23T23:33:36.114Z,14.90
2022-09-23T23:37:20.879Z,14.80
2022-09-23T23:41:03.967Z,14.80
2022-09-23T23:44:45.812Z,14.90
2022-09-23T23:48:30.607Z,14.90
2022-09-23T23:52:12.365Z,14.90
2022-09-23T23:55:54.062Z,14.90
2022-09-23T23:59:35.792Z,14.90
